Cleveland, OH

12:46 AM EST on December 05, 2016 (GMT -0500)
LeanDog | | Change Station

Elev 574 ft 41.51 °N, 81.69 °W | Updated 2 seconds ago

Light Rain
Light Rain
39.7 °F
Feels Like 34 °F
N
8.0
Wind Variable Wind from SW
Gusts 17.0 mph

Today
High -- | Low -- °F
--% Chance of Precip.
Yesterday
High -- | Low -- °F
Precip. -- in
Pressure 29.81 in
Visibility 10.0 miles
Clouds Mostly Cloudy 3800 ft
Overcast 7500 ft
Windchill 34 °F
Dew Point 36 °F
Humidity 86%
Rainfall 0.12 in
Snow Depth Not available.
7:38 AM 4:56 PM
Waxing Crescent, 28% visible
METAR KBKL 050453Z 16016KT 10SM -RA BKN038 OVC075 03/01 A2980 RMK AO2 RAE00B48UPB00E35SNB20E28 SLP095 P0001 T00330011 400560011
Pressure 29.81 in
Visibility 10.0 miles
Clouds Mostly Cloudy 3800 ft
Overcast 7500 ft
Windchill 34 °F
Dew Point 36 °F
Humidity 86%
Rainfall 0.12 in
Snow Depth Not available.
7:38 AM 4:56 PM
Waxing Crescent, 28% visible
METAR KBKL 050453Z 16016KT 10SM -RA BKN038 OVC075 03/01 A2980 RMK AO2 RAE00B48UPB00E35SNB20E28 SLP095 P0001 T00330011 400560011

10-Day Weather Forecast

Almanac

Astronomy

Dec. 05, 2016 Rise Set
Actual Time
Civil Twilight
Nautical Twilight
Astronomical Twilight
Moon
Length of Visible Light
Length of Day
Tomorrow will be .
, % of the Moon is Illuminated

Today's Extremes

State Highs State Lows

Community

WunderPhotos

Upload Photos

1,955,770 photos uploaded!

WunderBlog® & News

Nearby

Air Quality

  Air Quality AQ Index Pollutant
Not available.

Snow Depth

Station Depth Elevation

Earthquake Activity

City Distance Mag. Time & Date
Minimum magnitude displayed is 2.5.

Coastal Water Temperatures

Place Temperature

Stations

Nearby Weather Stations

Station Location Temp. Windchill Dew Point Humidity Wind Precip. Elev Updated Type
                   

Watches & Warnings

There are currently no watches in effect.